Time;durP1;ratioP1;P1;durP2;ratioP2;P2;SDS_P1;SDS_P2;PMS_P1;PMS_P2;Temp;Humidity;BMP_temperature;BMP_pressure;BME280_temperature;BME280_humidity;BME280_pressure;Samples;Min_cycle;Max_cycle;Signal;HPM_P1;HPM_P2
2021/04/12 00:00:57;;;;;;;24.20;7.25;;;;;;;8.90;58.12;100365.25;1699947;83;25893;-61
2021/04/12 00:03:35;;;;;;;19.32;8.13;;;;;;;8.88;58.17;100368.45;1667634;82;25989;-61
2021/04/12 00:06:16;;;;;;;19.70;7.75;;;;;;;8.87;58.30;100370.72;1680576;82;28657;-58
2021/04/12 00:09:01;;;;;;;19.20;7.72;;;;;;;8.85;58.32;100371.25;1681224;83;25913;-59
2021/04/12 00:11:34;;;;;;;13.62;6.45;;;;;;;8.84;58.41;100369.52;1664990;84;26088;-59
2021/04/12 00:14:26;;;;;;;18.57;6.17;;;;;;;8.82;58.51;100377.59;1666363;83;25901;-59
2021/04/12 00:17:06;;;;;;;18.67;6.65;;;;;;;8.82;58.51;100378.05;1676230;83;26406;-59
2021/04/12 00:20:05;;;;;;;11.05;6.00;;;;;;;8.81;58.55;100374.52;1696209;82;27650;-59
2021/04/12 00:22:53;;;;;;;22.73;6.60;;;;;;;8.79;58.63;100379.92;1696350;83;25945;-58
2021/04/12 00:25:32;;;;;;;15.05;6.22;;;;;;;8.78;58.82;100380.85;1664708;83;26107;-59
2021/04/12 00:28:17;;;;;;;15.08;6.25;;;;;;;8.79;58.80;100393.28;1671128;83;26386;-59
2021/04/12 00:30:53;;;;;;;13.93;5.70;;;;;;;8.77;58.87;100385.79;1695492;83;25829;-59
2021/04/12 00:33:46;;;;;;;15.83;6.42;;;;;;;8.77;58.95;100386.26;1700180;82;27363;-59
2021/04/12 00:36:25;;;;;;;15.75;6.35;;;;;;;8.77;58.99;100392.94;1667406;82;25975;-59
2021/04/12 00:39:16;;;;;;;16.80;6.03;;;;;;;8.77;59.08;100392.47;1675853;83;25973;-59
2021/04/12 00:42:07;;;;;;;14.43;6.35;;;;;;;8.77;59.15;100392.47;1659405;83;25877;-60
2021/04/12 00:45:03;;;;;;;14.78;5.80;;;;;;;8.76;59.19;100396.55;1696915;81;25798;-59
2021/04/12 00:47:52;;;;;;;18.42;5.50;;;;;;;8.74;59.22;100399.27;1702385;81;27936;-59
2021/04/12 00:50:34;;;;;;;12.30;6.25;;;;;;;8.71;59.26;100403.87;1690927;83;25981;-60
2021/04/12 00:53:52;;;;;;;16.80;6.20;;;;;;;8.69;59.36;100404.39;1667951;83;25820;-59
2021/04/12 00:56:33;;;;;;;13.32;5.65;;;;;;;8.66;59.41;100405.39;1704787;83;25944;-60
2021/04/12 00:59:32;;;;;;;18.27;6.58;;;;;;;8.62;59.46;100403.77;1700144;82;26128;-60
2021/04/12 01:02:43;;;;;;;15.60;6.85;;;;;;;8.59;59.53;100404.35;1668316;83;28580;-59
2021/04/12 01:05:49;;;;;;;16.75;6.00;;;;;;;8.55;59.58;100402.27;1688969;82;53705;-59
2021/04/12 01:08:48;;;;;;;14.90;6.37;;;;;;;8.50;59.64;100400.23;1666306;84;25867;-59
2021/04/12 01:11:54;;;;;;;15.83;6.97;;;;;;;8.47;59.73;100408.37;1676858;81;26639;-59
2021/04/12 01:14:51;;;;;;;17.62;6.28;;;;;;;8.45;59.78;100404.42;1692391;81;26687;-59
2021/04/12 01:18:11;;;;;;;14.00;5.95;;;;;;;8.43;59.81;100396.06;1674732;83;26709;-59
2021/04/12 01:20:59;;;;;;;15.90;6.28;;;;;;;8.40;59.87;100406.39;1706917;82;25880;-60
2021/04/12 01:23:58;;;;;;;17.00;7.28;;;;;;;8.38;59.91;100412.72;1643315;85;25997;-60
2021/04/12 01:26:43;;;;;;;16.50;7.33;;;;;;;8.37;59.97;100413.19;1670645;84;25962;-60
2021/04/12 01:29:53;;;;;;;25.52;8.53;;;;;;;8.36;59.99;100414.58;1680068;83;25760;-60
2021/04/12 01:32:37;;;;;;;19.02;7.95;;;;;;;8.35;60.06;100420.85;1687045;83;27735;-60
2021/04/12 01:35:32;;;;;;;20.17;7.37;;;;;;;8.33;60.05;100419.58;1659488;83;26410;-59
2021/04/12 01:38:28;;;;;;;16.70;7.08;;;;;;;8.32;60.19;100426.27;1662290;83;25830;-60
2021/04/12 01:41:13;;;;;;;19.15;6.70;;;;;;;8.32;60.20;100424.94;1674079;83;26569;-60
2021/04/12 01:44:29;;;;;;;15.00;6.58;;;;;;;8.32;60.25;100428.48;1669232;83;25870;-60
2021/04/12 01:47:11;;;;;;;11.45;5.50;;;;;;;8.32;60.25;100424.47;1667840;84;27471;-59
2021/04/12 01:50:20;;;;;;;20.12;6.05;;;;;;;8.32;60.30;100430.28;1668550;83;25852;-59
2021/04/12 01:53:33;;;;;;;14.78;5.75;;;;;;;8.29;60.38;100428.59;1665647;84;25834;-60
2021/04/12 01:56:18;;;;;;;11.53;5.85;;;;;;;8.27;60.41;100437.59;1669403;83;25875;-60
2021/04/12 01:59:18;;;;;;;11.30;5.50;;;;;;;8.24;60.45;100446.59;1683074;83;25816;-60
2021/04/12 02:02:09;;;;;;;11.50;5.83;;;;;;;8.21;60.52;100457.37;1680328;83;27869;-60
2021/04/12 02:04:54;;;;;;;11.45;5.42;;;;;;;8.18;60.53;100463.30;1684844;83;26304;-59
2021/04/12 02:07:39;;;;;;;13.48;5.65;;;;;;;8.14;60.59;100458.53;1697178;83;26158;-59
2021/04/12 02:10:54;;;;;;;12.43;5.85;;;;;;;8.13;60.68;100466.12;1680394;83;26664;-60
2021/04/12 02:13:48;;;;;;;16.00;6.78;;;;;;;8.09;60.67;100470.70;1707091;82;25740;-60
2021/04/12 02:16:41;;;;;;;18.02;7.08;;;;;;;8.07;60.83;100478.36;1679455;82;27972;-60
2021/04/12 02:19:44;;;;;;;21.97;10.75;;;;;;;8.03;60.79;100481.60;1680612;81;25856;-59
2021/04/12 02:22:56;;;;;;;21.40;11.12;;;;;;;8.01;60.88;100475.91;1707390;82;26505;-60
2021/04/12 02:25:47;;;;;;;22.05;11.28;;;;;;;8.00;60.91;100475.04;1676414;83;26399;-59
2021/04/12 02:28:41;;;;;;;17.80;9.13;;;;;;;7.97;60.92;100477.81;1723412;81;25836;-60
2021/04/12 02:31:21;;;;;;;17.15;8.18;;;;;;;7.93;60.88;100491.32;1624804;83;26608;-59
2021/04/12 02:34:05;;;;;;;13.85;7.53;;;;;;;7.82;61.02;100494.36;1681804;83;25883;-59
2021/04/12 02:36:38;;;;;;;24.63;9.30;;;;;;;7.75;61.05;100497.73;1699047;83;25958;-60
2021/04/12 02:39:45;;;;;;;23.87;10.30;;;;;;;7.70;61.18;100502.81;1693827;83;26558;-60
2021/04/12 02:42:38;;;;;;;20.00;8.63;;;;;;;7.66;61.33;100497.17;1678693;83;25831;-59
2021/04/12 02:45:46;;;;;;;21.05;8.80;;;;;;;7.62;61.48;100508.41;1625108;83;27833;-60
2021/04/12 02:48:46;;;;;;;23.47;10.00;;;;;;;7.66;61.95;100517.19;1710205;82;25916;-59
2021/04/12 02:51:39;;;;;;;22.75;9.98;;;;;;;7.65;62.32;100513.64;1681923;83;26360;-59
2021/04/12 02:54:31;;;;;;;25.10;11.75;;;;;;;7.67;63.27;100518.92;1681855;83;25978;-59
2021/04/12 02:57:38;;;;;;;26.75;14.15;;;;;;;7.66;65.13;100526.05;1679545;83;25921;-59
2021/04/12 03:00:29;;;;;;;28.65;13.40;;;;;;;7.62;66.54;100532.88;1679654;82;27706;-60
2021/04/12 03:03:05;;;;;;;30.08;16.32;;;;;;;7.58;67.64;100555.23;1662229;82;26504;-60
2021/04/12 03:05:57;;;;;;;31.27;18.15;;;;;;;7.51;67.90;100553.69;1679296;82;26424;-60
2021/04/12 03:08:38;;;;;;;;;;;;;;;7.43;68.51;100553.48;1700298;81;25852;-60
2021/04/12 03:11:35;;;;;;;39.30;22.13;;;;;;;7.41;70.07;100556.66;1699027;82;25795;-59
2021/04/12 03:14:34;;;;;;;40.52;22.32;;;;;;;7.41;69.74;100555.32;1677597;83;27972;-60
2021/04/12 03:17:38;;;;;;;40.55;22.07;;;;;;;7.40;69.82;100560.23;1677618;84;26424;-59
2021/04/12 03:20:20;;;;;;;37.08;20.27;;;;;;;7.40;70.22;100552.23;1643753;84;25901;-60
2021/04/12 03:23:34;;;;;;;37.28;20.95;;;;;;;7.40;71.02;100561.58;1720123;82;26564;-60
2021/04/12 03:26:33;;;;;;;37.00;22.10;;;;;;;7.39;71.70;100563.83;1711252;82;26557;-60
2021/04/12 03:29:15;;;;;;;42.13;21.87;;;;;;;7.37;71.96;100571.46;1713348;81;27941;-60
2021/04/12 03:32:16;;;;;;;37.80;21.85;;;;;;;7.38;71.65;100575.41;1724515;81;26373;-59
2021/04/12 03:34:55;;;;;;;35.83;20.40;;;;;;;7.39;71.94;100583.83;1670178;83;25893;-60
2021/04/12 03:37:45;;;;;;;40.43;22.60;;;;;;;7.40;72.68;100574.91;1714860;81;25716;-60
2021/04/12 03:40:40;;;;;;;36.00;19.80;;;;;;;7.42;72.67;100578.86;1692598;83;26031;-60
2021/04/12 03:43:36;;;;;;;35.30;20.48;;;;;;;7.40;72.86;100580.23;1705366;82;27906;-60
2021/04/12 03:46:28;;;;;;;35.25;18.95;;;;;;;7.42;72.60;100586.39;1705590;82;25914;-60
2021/04/12 03:49:10;;;;;;;35.17;16.85;;;;;;;7.43;72.50;100587.27;1726147;82;26209;-60
2021/04/12 03:52:19;;;;;;;26.30;15.93;;;;;;;7.39;72.32;100598.49;1712973;81;25818;-59
2021/04/12 03:55:21;;;;;;;24.98;12.13;;;;;;;7.33;72.63;100592.02;1681907;82;25895;-60
2021/04/12 03:58:20;;;;;;;19.12;9.73;;;;;;;7.25;72.72;100602.50;1693476;83;27708;-59
2021/04/12 04:01:17;;;;;;;18.85;11.60;;;;;;;7.10;72.57;100591.38;1648931;84;25840;-59
2021/04/12 04:04:19;;;;;;;19.25;10.72;;;;;;;6.99;72.48;100591.28;1678012;83;25756;-60
2021/04/12 04:07:18;;;;;;;16.70;10.10;;;;;;;6.94;72.35;100591.88;1690041;83;25921;-60
2021/04/12 04:10:03;;;;;;;13.48;8.83;;;;;;;6.88;72.36;100598.72;1675166;83;26414;-60
2021/04/12 04:13:08;;;;;;;14.65;8.65;;;;;;;6.79;72.04;100603.39;1678977;83;27422;-59
2021/04/12 04:15:53;;;;;;;18.10;8.48;;;;;;;6.74;72.09;100622.63;1663173;83;25798;-60
2021/04/12 04:19:04;;;;;;;15.65;8.98;;;;;;;6.66;71.97;100615.77;1678289;83;25997;-60
2021/04/12 04:22:23;;;;;;;10.45;6.97;;;;;;;6.63;72.00;100624.72;1670729;83;25926;-61
2021/04/12 04:25:16;;;;;;;12.03;7.30;;;;;;;6.59;71.77;100628.84;1700211;81;25802;-60
2021/04/12 04:28:01;;;;;;;12.10;7.00;;;;;;;6.56;71.72;100623.59;1699520;82;28427;-60
2021/04/12 04:30:58;;;;;;;12.40;6.75;;;;;;;6.52;71.68;100629.46;1633618;84;25788;-60
2021/04/12 04:33:36;;;;;;;17.30;8.73;;;;;;;6.50;71.87;100640.61;1653577;83;25781;-60
2021/04/12 04:37:01;;;;;;;11.33;7.00;;;;;;;6.46;72.09;100644.27;1659059;84;25845;-60
2021/04/12 04:40:18;;;;;;;12.73;7.50;;;;;;;6.46;72.16;100644.27;1675646;83;25832;-59
2021/04/12 04:43:15;;;;;;;11.30;6.62;;;;;;;6.47;72.07;100649.55;1677309;83;27868;-59
2021/04/12 04:46:05;;;;;;;12.03;7.10;;;;;;;6.50;71.96;100652.59;1669166;83;25888;-60
2021/04/12 04:48:58;;;;;;;11.38;6.22;;;;;;;6.53;71.92;100669.82;1676811;83;26052;-60
2021/04/12 04:51:54;;;;;;;13.95;7.05;;;;;;;6.59;71.82;100667.45;1672290;82;26211;-60
2021/04/12 04:54:49;;;;;;;9.13;5.28;;;;;;;6.63;71.76;100671.33;1674239;84;25887;-60
2021/04/12 04:57:54;;;;;;;9.48;5.95;;;;;;;6.71;71.77;100673.78;1656774;83;28465;-60
2021/04/12 05:01:10;;;;;;;8.95;5.22;;;;;;;6.72;71.59;100675.07;1685114;83;25797;-60
2021/04/12 05:04:06;;;;;;;8.48;5.70;;;;;;;6.78;71.51;100674.91;1691321;82;25961;-59
2021/04/12 05:07:00;;;;;;;13.43;5.83;;;;;;;6.84;71.49;100680.06;1674814;83;26484;-59
2021/04/12 05:10:00;;;;;;;10.95;4.30;;;;;;;6.88;71.37;100694.63;1690346;82;25942;-60
2021/04/12 05:12:58;;;;;;;11.78;4.80;;;;;;;6.92;71.47;100694.97;1664693;84;27599;-60
2021/04/12 05:16:15;;;;;;;10.00;5.70;;;;;;;6.91;71.25;100702.09;1709159;82;25886;-60
2021/04/12 05:19:17;;;;;;;7.97;5.22;;;;;;;6.95;71.26;100701.09;1693780;83;25799;-60
2021/04/12 05:22:26;;;;;;;8.05;4.65;;;;;;;6.93;71.19;100708.70;1699997;83;25885;-60
2021/04/12 05:25:11;;;;;;;7.22;4.55;;;;;;;6.90;71.34;100703.45;1696605;82;25810;-61
2021/04/12 05:28:21;;;;;;;8.20;5.08;;;;;;;6.91;71.29;100712.74;1665075;83;27589;-61
2021/04/12 05:31:20;;;;;;;11.20;6.28;;;;;;;6.94;71.15;100719.78;1689718;81;26314;-61
2021/04/12 05:34:23;;;;;;;8.55;5.03;;;;;;;6.99;71.09;100721.41;1675380;83;26685;-59
2021/04/12 05:37:37;;;;;;;10.60;5.25;;;;;;;6.99;71.09;100724.53;1693430;82;26391;-60
2021/04/12 05:40:26;;;;;;;9.33;5.55;;;;;;;6.94;71.02;100727.77;1682894;83;25828;-59
2021/04/12 05:43:42;;;;;;;10.50;5.03;;;;;;;6.93;71.02;100730.02;1677470;82;27862;-59
2021/04/12 05:46:41;;;;;;;10.63;5.58;;;;;;;6.90;71.08;100746.97;1680293;83;26259;-60
2021/04/12 05:49:29;;;;;;;13.88;4.95;;;;;;;6.90;71.10;100739.43;1663908;84;26188;-60
2021/04/12 05:52:25;;;;;;;9.98;5.30;;;;;;;6.95;71.06;100739.72;1679393;83;26586;-61
2021/04/12 05:55:12;;;;;;;33.13;6.85;;;;;;;6.99;71.03;100744.52;1670686;83;26266;-62
2021/04/12 05:57:58;;;;;;;9.93;5.25;;;;;;;7.02;71.01;100755.09;1678487;83;27785;-60
2021/04/12 06:01:01;;;;;;;7.45;5.05;;;;;;;7.04;70.91;100766.13;1671577;83;26373;-60
2021/04/12 06:04:09;;;;;;;27.85;6.55;;;;;;;6.96;70.89;100761.45;1668515;83;25925;-60
2021/04/12 06:07:28;;;;;;;9.58;5.20;;;;;;;6.95;70.97;100770.83;1698514;82;25992;-60
2021/04/12 06:10:36;;;;;;;14.85;5.62;;;;;;;6.94;70.84;100786.39;1689050;81;25922;-60
2021/04/12 06:13:52;;;;;;;7.95;5.45;;;;;;;6.95;70.85;100796.14;1683074;83;27502;-61
2021/04/12 06:16:46;;;;;;;13.03;6.22;;;;;;;6.94;70.83;100804.59;1665388;83;25855;-59
2021/04/12 06:19:48;;;;;;;8.70;5.28;;;;;;;6.91;70.88;100813.13;1661901;83;25957;-60
2021/04/12 06:22:45;;;;;;;7.67;5.45;;;;;;;6.79;70.74;100804.52;1665913;82;26331;-60
2021/04/12 06:25:40;;;;;;;21.42;7.50;;;;;;;6.84;70.76;100830.59;1659068;83;25890;-60
2021/04/12 06:28:51;;;;;;;15.58;6.70;;;;;;;6.81;70.82;100834.67;1667346;83;27750;-60
2021/04/12 06:31:54;;;;;;;14.07;5.97;;;;;;;6.79;71.07;100839.16;1670380;82;26410;-61
2021/04/12 06:34:54;;;;;;;13.60;5.72;;;;;;;6.74;71.20;100830.41;1682920;83;26571;-61
2021/04/12 06:37:51;;;;;;;11.30;5.37;;;;;;;6.75;71.11;100832.16;1660630;83;26418;-61
2021/04/12 06:40:31;;;;;;;30.23;8.20;;;;;;;6.74;71.12;100837.06;1658843;83;25930;-61
2021/04/12 06:43:41;;;;;;;21.95;6.08;;;;;;;6.72;71.08;100854.88;1659043;83;28480;-59
2021/04/12 06:46:41;;;;;;;29.07;6.70;;;;;;;6.74;71.04;100835.73;1661854;83;26467;-61
2021/04/12 06:49:45;;;;;;;16.55;5.17;;;;;;;6.77;71.00;100840.11;1686269;83;25987;-61
2021/04/12 06:52:41;;;;;;;10.50;5.28;;;;;;;6.78;71.07;100862.72;1665549;83;25866;-61
2021/04/12 06:55:23;;;;;;;9.08;5.17;;;;;;;6.74;70.94;100850.38;1665237;83;26395;-61
2021/04/12 06:58:14;;;;;;;17.10;6.50;;;;;;;6.79;70.94;100855.14;1687711;83;26160;-60
2021/04/12 07:00:57;;;;;;;;;;;;;;;6.83;70.90;100858.16;1655542;84;25944;-60
2021/04/12 07:03:47;;;;;;;13.32;6.62;;;;;;;6.82;70.92;100860.40;1663395;83;25903;-61
2021/04/12 07:07:11;;;;;;;17.73;7.03;;;;;;;6.79;70.96;100863.14;1671638;83;25834;-60
2021/04/12 07:10:17;;;;;;;21.60;7.47;;;;;;;6.81;70.95;100875.97;1672382;84;27245;-60
2021/04/12 07:13:05;;;;;;;12.82;8.10;;;;;;;6.88;70.88;100881.14;1683538;83;27905;-60
2021/04/12 07:16:00;;;;;;;18.20;8.03;;;;;;;6.88;70.77;100889.14;1629620;84;25886;-60
2021/04/12 07:19:09;;;;;;;19.85;8.53;;;;;;;6.80;71.13;100906.18;1686848;83;26777;-61
2021/04/12 07:22:16;;;;;;;21.17;8.60;;;;;;;6.69;71.38;100904.23;1668307;83;26777;-60
2021/04/12 07:24:58;;;;;;;15.75;7.83;;;;;;;6.62;71.57;100907.06;1669912;83;25974;-58
2021/04/12 07:28:01;;;;;;;11.18;6.70;;;;;;;6.57;72.03;100920.48;1662794;83;27568;-59
2021/04/12 07:30:51;;;;;;;13.55;6.22;;;;;;;6.48;72.26;100914.03;1667388;83;25869;-58
2021/04/12 07:33:56;;;;;;;19.35;7.55;;;;;;;6.40;72.39;100909.33;1688350;83;26793;-59
2021/04/12 07:37:17;;;;;;;19.23;8.28;;;;;;;6.39;72.46;100927.09;1668922;83;26479;-58
2021/04/12 07:40:20;;;;;;;25.32;7.70;;;;;;;6.37;73.00;100930.25;1670960;83;25916;-62
2021/04/12 07:43:22;;;;;;;14.90;6.87;;;;;;;6.32;72.61;100940.11;1671151;84;26510;-60
2021/04/12 07:46:18;;;;;;;19.32;6.70;;;;;;;6.28;72.72;100941.09;1670463;84;25935;-63
2021/04/12 07:49:41;;;;;;;16.90;7.12;;;;;;;6.22;73.18;100948.33;1671412;84;25841;-61
2021/04/12 07:52:54;;;;;;;25.75;8.65;;;;;;;6.13;73.13;100944.94;1670828;83;25858;-61
2021/04/12 07:55:52;;;;;;;20.45;7.35;;;;;;;6.11;73.39;100945.42;1669369;83;25790;-61
2021/04/12 07:58:55;;;;;;;11.43;6.87;;;;;;;6.01;73.87;100941.20;1664935;83;27898;-62
2021/04/12 08:02:01;;;;;;;10.55;5.90;;;;;;;5.99;73.86;100958.98;1671712;82;25840;-60
2021/04/12 08:05:11;;;;;;;12.07;5.33;;;;;;;5.95;74.29;100963.94;1669147;83;25827;-60
2021/04/12 08:08:21;;;;;;;11.33;6.17;;;;;;;5.93;74.39;100972.40;1629014;84;25874;-61
2021/04/12 08:11:32;;;;;;;13.53;6.08;;;;;;;5.92;74.68;100980.41;1670880;83;25824;-59
2021/04/12 08:14:44;;;;;;;12.40;5.70;;;;;;;5.83;74.54;100968.13;1686906;83;28289;-59
2021/04/12 08:17:40;;;;;;;15.10;7.55;;;;;;;5.91;74.65;100980.86;1669615;83;32564;-60
2021/04/12 08:20:52;;;;;;;18.65;7.72;;;;;;;5.93;74.46;100987.03;1687695;83;26567;-59
2021/04/12 08:24:07;;;;;;;21.80;8.75;;;;;;;5.95;74.45;100995.86;1690607;83;25821;-60
2021/04/12 08:27:35;;;;;;;20.60;9.65;;;;;;;5.99;74.47;100986.91;1667231;84;26129;-60
2021/04/12 08:30:54;;;;;;;17.50;8.35;;;;;;;5.99;74.29;100996.68;1666571;83;28578;-59
2021/04/12 08:33:58;;;;;;;27.45;10.05;;;;;;;6.01;74.12;101005.06;1655475;83;25818;-60
2021/04/12 08:37:07;;;;;;;21.85;9.13;;;;;;;5.95;74.02;101013.61;1668680;83;25811;-60
2021/04/12 08:40:13;;;;;;;23.07;9.35;;;;;;;5.91;73.94;101015.90;1676179;82;26504;-59
2021/04/12 08:43:10;;;;;;;18.35;8.68;;;;;;;5.90;74.04;101022.12;1668062;84;25937;-60
2021/04/12 08:46:19;;;;;;;30.12;9.75;;;;;;;5.86;73.97;101039.89;1666946;83;27841;-62
2021/04/12 08:49:15;;;;;;;15.38;6.95;;;;;;;5.88;73.87;101042.95;1673068;83;25964;-60
2021/04/12 08:52:03;;;;;;;17.95;8.15;;;;;;;5.81;73.77;101045.30;1694377;83;25925;-60
2021/04/12 08:55:11;;;;;;;17.00;7.33;;;;;;;5.77;73.77;101050.23;1668949;83;25784;-60
2021/04/12 08:58:21;;;;;;;18.23;8.48;;;;;;;5.73;73.57;101043.67;1675933;83;25843;-60
2021/04/12 09:01:21;;;;;;;15.05;7.25;;;;;;;5.68;73.56;101044.20;1674276;81;27424;-60
2021/04/12 09:04:42;;;;;;;15.90;6.92;;;;;;;5.67;73.59;101054.41;1679921;82;26327;-60
2021/04/12 09:07:33;;;;;;;18.00;8.20;;;;;;;5.60;73.79;101041.67;1682144;82;25823;-60
2021/04/12 09:10:09;;;;;;;21.35;8.25;;;;;;;5.57;73.65;101052.36;1673482;82;25731;-59
2021/04/12 09:12:48;;;;;;;21.23;9.95;;;;;;;5.57;73.67;101059.45;1682770;83;26167;-60
2021/04/12 09:15:49;;;;;;;30.45;11.05;;;;;;;5.59;73.57;101066.95;1683276;82;27847;-59
2021/04/12 09:18:43;;;;;;;22.13;10.35;;;;;;;5.58;73.51;101078.05;1678922;82;25962;-59
2021/04/12 09:21:45;;;;;;;28.55;12.07;;;;;;;5.61;73.62;101086.42;1691513;82;26819;-59
2021/04/12 09:24:52;;;;;;;26.17;12.20;;;;;;;5.55;73.59;101088.28;1684695;82;25940;-59
2021/04/12 09:27:57;;;;;;;38.50;13.50;;;;;;;5.54;73.53;101089.62;1682976;82;25873;-59
2021/04/12 09:31:07;;;;;;;40.90;14.10;;;;;;;5.56;73.47;101097.13;1711198;82;27760;-60
2021/04/12 09:34:07;;;;;;;24.72;10.55;;;;;;;5.52;73.40;101099.41;1727356;81;25838;-60
2021/04/12 09:37:24;;;;;;;25.50;11.50;;;;;;;5.38;74.03;101104.05;1724748;81;25957;-60
2021/04/12 09:40:44;;;;;;;23.38;10.10;;;;;;;5.19;74.06;101102.14;1699240;82;26750;-64
2021/04/12 09:44:02;;;;;;;24.50;10.03;;;;;;;5.25;74.08;101103.80;1688870;82;25967;-58
2021/04/12 09:47:08;;;;;;;23.02;10.15;;;;;;;5.32;73.96;101101.48;1677007;81;27719;-59
2021/04/12 09:49:53;;;;;;;20.65;9.00;;;;;;;5.40;73.89;101113.77;1686877;82;26511;-60
2021/04/12 09:53:07;;;;;;;18.00;8.53;;;;;;;5.46;73.74;101134.94;1685026;82;25882;-61
2021/04/12 09:56:19;;;;;;;15.48;8.15;;;;;;;5.40;73.60;101147.00;1693838;83;26247;-59
2021/04/12 09:59:30;;;;;;;25.37;9.30;;;;;;;5.27;73.67;101156.04;1672817;83;25884;-59
2021/04/12 10:02:26;;;;;;;20.62;9.70;;;;;;;5.27;73.67;101156.04;1637704;84;28449;-61
2021/04/12 10:05:04;;;;;;;16.57;8.08;;;;;;;5.29;73.49;101156.89;1668145;83;26075;-57
2021/04/12 10:07:53;;;;;;;15.23;8.25;;;;;;;5.30;73.58;101156.45;1678010;83;25881;-59
2021/04/12 10:10:31;;;;;;;16.25;7.65;;;;;;;5.28;73.46;101171.08;1680216;82;26843;-61
2021/04/12 10:13:19;;;;;;;12.65;5.50;;;;;;;5.30;73.39;101170.61;1681954;83;25804;-59
2021/04/12 10:15:59;;;;;;;12.58;6.20;;;;;;;5.23;73.47;101174.25;1699343;81;28372;-59
2021/04/12 10:18:43;;;;;;;10.88;6.05;;;;;;;5.16;73.27;101175.27;1686299;83;25995;-61
2021/04/12 10:21:20;;;;;;;14.65;6.75;;;;;;;5.19;73.31;101179.21;1669267;82;25968;-61
2021/04/12 10:24:05;;;;;;;11.93;7.08;;;;;;;5.22;73.20;101174.70;1670414;83;25834;-62
2021/04/12 10:26:51;;;;;;;12.00;6.37;;;;;;;5.31;73.22;101194.09;1695593;83;25838;-60
2021/04/12 10:29:44;;;;;;;13.72;7.12;;;;;;;5.25;73.08;101199.48;1676374;83;27653;-59
2021/04/12 10:32:25;;;;;;;11.25;6.50;;;;;;;5.29;73.12;101193.22;1675433;83;25772;-59
2021/04/12 10:35:22;;;;;;;10.38;6.47;;;;;;;5.31;73.02;101192.30;1702350;82;25777;-60
2021/04/12 10:37:58;;;;;;;13.88;6.33;;;;;;;5.33;73.03;101205.58;1696765;83;25814;-62
2021/04/12 10:41:07;;;;;;;13.65;6.53;;;;;;;5.20;72.87;101208.39;1695098;83;26245;-59
2021/04/12 10:43:46;;;;;;;17.42;7.50;;;;;;;5.13;73.05;101190.80;1669482;83;27572;-59
2021/04/12 10:46:55;;;;;;;16.48;8.30;;;;;;;5.06;73.19;101194.88;1696051;82;26441;-58
2021/04/12 10:49:51;;;;;;;18.15;9.43;;;;;;;5.08;73.23;101202.38;1675814;83;25886;-58
2021/04/12 10:53:00;;;;;;;23.20;9.83;;;;;;;5.06;73.33;101206.83;1659197;83;26302;-60
2021/04/12 10:55:39;;;;;;;18.10;8.65;;;;;;;4.99;73.53;101201.16;1669089;83;25886;-60
2021/04/12 10:58:48;;;;;;;15.95;7.67;;;;;;;4.94;73.57;101205.64;1672507;83;27985;-62
2021/04/12 11:01:33;;;;;;;14.83;7.85;;;;;;;4.84;73.82;101204.87;1689949;83;25997;-60
2021/04/12 11:04:40;;;;;;;16.00;8.05;;;;;;;4.68;74.26;101208.12;1648710;83;26784;-61
2021/04/12 11:07:28;;;;;;;16.00;8.45;;;;;;;4.56;74.10;101230.81;1669847;83;26183;-60
2021/04/12 11:13:33;;;;;;;11.57;6.95;;;;;;;4.39;74.41;101212.84;1687530;82;27860;-59
2021/04/12 11:16:28;;;;;;;14.83;8.85;;;;;;;4.39;74.74;101226.98;1694040;82;25912;-64
2021/04/12 11:19:40;;;;;;;14.75;7.47;;;;;;;4.32;74.74;101211.13;1699475;82;26458;-60
2021/04/12 11:22:33;;;;;;;;;;;;;;;4.36;74.83;101220.83;1671308;82;25858;-58
2021/04/12 11:25:18;;;;;;;16.87;8.55;;;;;;;4.36;74.70;101216.41;1699041;82;25801;-59
2021/04/12 11:28:04;;;;;;;14.00;7.50;;;;;;;4.35;74.75;101228.36;1697282;82;28002;-61
2021/04/12 11:30:49;;;;;;;13.95;7.72;;;;;;;4.36;74.93;101253.55;1695496;83;26580;-61
2021/04/12 11:33:43;;;;;;;18.77;10.15;;;;;;;4.39;74.72;101223.45;1706286;82;26529;-60
2021/04/12 11:36:28;;;;;;;24.57;12.43;;;;;;;4.47;74.82;101238.86;1703264;82;26221;-59
2021/04/12 11:39:22;;;;;;;16.25;7.85;;;;;;;4.51;74.79;101232.64;1692348;83;25847;-59
2021/04/12 11:41:58;;;;;;;10.90;6.42;;;;;;;4.56;75.02;101231.70;1694384;82;28120;-59
2021/04/12 11:44:49;;;;;;;16.75;7.90;;;;;;;4.64;75.04;101235.61;1686047;83;26959;-59
2021/04/12 11:47:42;;;;;;;17.77;8.17;;;;;;;4.70;74.99;101236.00;1692453;83;25887;-59
2021/04/12 11:50:22;;;;;;;15.35;7.72;;;;;;;4.70;74.89;101230.69;1690527;83;25845;-60
2021/04/12 11:53:10;;;;;;;14.53;7.10;;;;;;;4.76;74.87;101228.84;1672040;85;26390;-60
2021/04/12 11:56:08;;;;;;;12.93;7.17;;;;;;;4.75;74.79;101228.41;1678382;83;28616;-59
2021/04/12 11:58:50;;;;;;;15.55;7.42;;;;;;;4.78;74.86;101242.99;1657031;83;25850;-59
2021/04/12 12:01:53;;;;;;;10.45;5.75;;;;;;;4.87;74.88;101238.91;1683644;83;25916;-59
2021/04/12 12:04:50;;;;;;;10.23;5.50;;;;;;;4.90;74.59;101252.61;1681153;83;25895;-60
2021/04/12 12:07:35;;;;;;;8.75;5.22;;;;;;;4.96;74.54;101255.20;1658187;83;25889;-59
2021/04/12 12:10:27;;;;;;;8.73;4.80;;;;;;;5.01;74.36;101264.45;1661360;84;28563;-59
2021/04/12 12:13:43;;;;;;;8.73;4.55;;;;;;;5.02;74.37;101253.81;1648240;85;26085;-57
2021/04/12 12:16:31;;;;;;;9.88;4.70;;;;;;;5.09;74.25;101246.20;1647252;84;25930;-59
2021/04/12 12:19:44;;;;;;;14.60;6.62;;;;;;;5.20;73.96;101263.35;1684411;83;26049;-60
2021/04/12 12:22:28;;;;;;;18.92;7.30;;;;;;;5.21;73.56;101277.03;1641630;85;25877;-60
2021/04/12 12:25:16;;;;;;;13.10;7.45;;;;;;;5.18;73.17;101261.16;1665634;85;27904;-60
2021/04/12 12:27:57;;;;;;;13.95;8.30;;;;;;;5.11;73.13;101268.77;1654204;85;25849;-61
2021/04/12 12:30:39;;;;;;;16.80;8.28;;;;;;;5.11;72.97;101270.09;1655717;85;25832;-61
2021/04/12 12:33:42;;;;;;;16.45;8.90;;;;;;;5.11;73.01;101284.27;1674091;84;25877;-62
2021/04/12 12:36:30;;;;;;;14.78;7.72;;;;;;;5.13;72.90;101302.40;1686111;83;25849;-60
2021/04/12 12:39:03;;;;;;;16.80;8.80;;;;;;;5.07;72.69;101302.46;1659765;84;27805;-60
2021/04/12 12:41:39;;;;;;;20.70;9.88;;;;;;;4.97;72.67;101308.77;1677043;83;25847;-60
2021/04/12 12:44:12;;;;;;;16.97;8.05;;;;;;;4.91;72.65;101307.50;1654643;85;26555;-60
2021/04/12 12:46:43;;;;;;;16.17;8.88;;;;;;;4.97;72.73;101310.55;1633727;86;26044;-60
2021/04/12 12:49:19;;;;;;;19.37;10.08;;;;;;;4.92;72.62;101307.05;1638818;85;28119;-63
2021/04/12 12:52:08;;;;;;;19.48;8.33;;;;;;;4.88;72.53;101316.83;1633299;85;27932;-59
2021/04/12 12:54:47;;;;;;;20.17;9.20;;;;;;;4.89;72.65;101319.91;1601693;86;26463;-66
2021/04/12 12:57:30;;;;;;;24.07;8.70;;;;;;;4.92;72.61;101326.97;1657631;84;25780;-61
2021/04/12 13:00:10;;;;;;;15.13;7.58;;;;;;;4.90;72.54;101333.62;1675245;82;25854;-60
2021/04/12 13:02:40;;;;;;;22.17;10.88;;;;;;;4.82;72.46;101344.77;1644868;84;25793;-62
2021/04/12 13:05:25;;;;;;;16.65;9.05;;;;;;;4.70;72.57;101339.55;1661198;83;28050;-59
2021/04/12 13:08:10;;;;;;;19.62;9.38;;;;;;;4.64;72.62;101334.30;1677400;83;25826;-62
2021/04/12 13:10:44;;;;;;;16.30;8.43;;;;;;;4.67;72.77;101340.47;1671633;83;25796;-60
2021/04/12 13:13:27;;;;;;;19.02;9.75;;;;;;;4.67;72.83;101344.45;1649295;85;25842;-60
2021/04/12 13:16:02;;;;;;;14.95;8.35;;;;;;;4.66;72.87;101344.02;1669619;84;25800;-60
2021/04/12 13:18:31;;;;;;;15.38;8.23;;;;;;;4.61;72.85;101340.52;1644548;85;28341;-60
2021/04/12 13:21:14;;;;;;;11.55;4.97;;;;;;;4.51;72.99;101343.68;1650943;84;25942;-60
2021/04/12 13:23:51;;;;;;;8.10;4.95;;;;;;;4.41;73.28;101363.22;1656896;85;25847;-59
2021/04/12 13:26:41;;;;;;;5.97;3.42;;;;;;;4.08;73.32;101364.30;1648958;85;25904;-62
2021/04/12 13:29:20;;;;;;;5.08;3.10;;;;;;;3.82;73.68;101373.70;1673712;84;25912;-62
2021/04/12 13:31:52;;;;;;;7.95;3.27;;;;;;;3.59;74.16;101390.14;1645886;85;27521;-62
2021/04/12 13:34:28;;;;;;;5.10;2.98;;;;;;;3.34;74.62;101404.33;1656074;84;26880;-60
2021/04/12 13:37:17;;;;;;;5.05;2.87;;;;;;;3.18;74.80;101408.33;1669448;84;25883;-62
2021/04/12 13:39:53;;;;;;;15.75;6.85;;;;;;;3.07;75.17;101414.07;1667166;84;26514;-60